createdAt,value
2023-04-02T00:01:02.696Z,8.50
2023-04-02T00:03:44.621Z,8.45
2023-04-02T00:06:29.938Z,9.15
2023-04-02T00:08:59.458Z,8.60
2023-04-02T00:11:29.693Z,8.27
2023-04-02T00:13:55.986Z,9.27
2023-04-02T00:16:23.587Z,9.57
2023-04-02T00:18:52.322Z,8.40
2023-04-02T00:21:26.536Z,8.65
2023-04-02T00:23:56.708Z,9.45
2023-04-02T00:26:31.266Z,9.38
2023-04-02T00:28:58.540Z,9.30
2023-04-02T00:31:25.369Z,9.23
2023-04-02T00:33:52.381Z,9.43
2023-04-02T00:36:20.277Z,9.30
2023-04-02T00:38:48.717Z,9.80
2023-04-02T00:41:18.283Z,9.20
2023-04-02T00:43:46.765Z,9.70
2023-04-02T00:46:17.626Z,10.48
2023-04-02T00:48:51.759Z,9.75
2023-04-02T00:51:17.996Z,9.27
2023-04-02T00:53:45.969Z,9.00
2023-04-02T00:56:19.072Z,9.32
2023-04-02T00:58:45.976Z,8.93
2023-04-02T01:01:21.540Z,9.07
2023-04-02T01:03:58.600Z,9.57
2023-04-02T01:06:37.109Z,9.38
2023-04-02T01:09:08.113Z,9.02
2023-04-02T01:11:52.980Z,9.65
2023-04-02T01:14:23.012Z,9.38
2023-04-02T01:16:54.016Z,9.60
2023-04-02T01:19:32.531Z,10.15
2023-04-02T01:22:18.436Z,9.30
2023-04-02T01:24:44.958Z,9.73
2023-04-02T01:27:14.113Z,8.98
2023-04-02T01:29:45.519Z,9.40
2023-04-02T01:32:13.874Z,9.23
2023-04-02T01:34:41.281Z,9.48
2023-04-02T01:37:27.656Z,9.60
2023-04-02T01:39:56.704Z,9.05
2023-04-02T01:42:33.375Z,8.07
2023-04-02T01:45:02.312Z,8.90
2023-04-02T01:47:29.633Z,8.60
2023-04-02T01:50:02.173Z,7.97
2023-04-02T01:52:36.810Z,7.80
2023-04-02T01:55:03.913Z,8.40
2023-04-02T01:57:31.110Z,8.35
2023-04-02T01:59:59.016Z,7.75
2023-04-02T02:02:25.938Z,8.45
2023-04-02T02:04:52.989Z,7.78
2023-04-02T02:07:20.589Z,8.13
2023-04-02T02:09:47.915Z,8.10
2023-04-02T02:12:14.959Z,7.50
2023-04-02T02:14:52.061Z,7.72
2023-04-02T02:17:19.796Z,7.85
2023-04-02T02:19:47.924Z,7.60
2023-04-02T02:22:14.242Z,7.78
2023-04-02T02:24:41.129Z,8.30
2023-04-02T02:27:10.503Z,7.78
2023-04-02T02:29:38.263Z,7.65
2023-04-02T02:32:06.343Z,7.43
2023-04-02T02:34:38.545Z,8.25
2023-04-02T02:37:24.736Z,7.90
2023-04-02T02:39:56.312Z,7.97
2023-04-02T02:42:28.045Z,7.80
2023-04-02T02:44:55.100Z,7.50
2023-04-02T02:47:35.050Z,7.50
2023-04-02T02:50:07.321Z,8.30
2023-04-02T02:52:38.116Z,7.85
2023-04-02T02:55:10.754Z,7.32
2023-04-02T02:57:39.785Z,7.50
2023-04-02T03:00:09.925Z,7.78
2023-04-02T03:02:38.485Z,8.05
2023-04-02T03:05:05.675Z,8.55
2023-04-02T03:07:32.586Z,7.28
2023-04-02T03:09:58.960Z,7.57
2023-04-02T03:12:48.537Z,8.20
2023-04-02T03:15:34.029Z,7.63
2023-04-02T03:18:07.812Z,7.60
2023-04-02T03:21:00.714Z,7.75
2023-04-02T03:23:29.246Z,7.75
2023-04-02T03:25:59.160Z,7.30
2023-04-02T03:28:27.923Z,7.73
2023-04-02T03:31:00.418Z,8.32
2023-04-02T03:33:39.464Z,8.27
2023-04-02T03:36:06.281Z,8.20
2023-04-02T03:38:34.909Z,7.53
2023-04-02T03:41:10.056Z,7.75
2023-04-02T03:43:41.202Z,7.28
2023-04-02T03:46:22.747Z,7.72
2023-04-02T03:48:51.005Z,7.63
2023-04-02T03:51:17.329Z,7.40
2023-04-02T03:53:44.477Z,8.13
2023-04-02T03:56:17.421Z,7.78
2023-04-02T03:58:46.942Z,7.68
2023-04-02T04:01:23.050Z,7.78
2023-04-02T04:03:54.069Z,7.53
2023-04-02T04:06:21.335Z,7.30
2023-04-02T04:08:54.634Z,8.00
2023-04-02T04:11:31.234Z,7.70
2023-04-02T04:14:03.665Z,7.95
2023-04-02T04:16:32.518Z,7.95
2023-04-02T04:19:04.917Z,7.38
2023-04-02T04:21:37.033Z,7.30
2023-04-02T04:24:07.823Z,6.95
2023-04-02T04:26:53.476Z,7.03
2023-04-02T04:29:40.785Z,7.15
2023-04-02T04:32:14.836Z,7.43
2023-04-02T04:34:46.754Z,6.88
2023-04-02T04:37:21.458Z,6.55
2023-04-02T04:39:50.535Z,6.30
2023-04-02T04:42:22.717Z,6.30
2023-04-02T04:44:57.152Z,6.47
2023-04-02T04:47:30.863Z,5.85
2023-04-02T04:50:01.317Z,5.47
2023-04-02T04:52:33.835Z,5.47
2023-04-02T04:55:00.847Z,6.35
2023-04-02T04:57:30.438Z,5.15
2023-04-02T05:00:19.708Z,4.78
2023-04-02T05:02:52.771Z,5.07
2023-04-02T05:05:29.142Z,5.43
2023-04-02T05:08:00.249Z,5.07
2023-04-02T05:10:45.390Z,4.95
2023-04-02T05:13:16.145Z,5.15
2023-04-02T05:15:50.588Z,5.00
2023-04-02T05:18:26.142Z,4.25
2023-04-02T05:21:18.786Z,4.80
2023-04-02T05:23:54.811Z,3.97
2023-04-02T05:26:32.393Z,3.55
2023-04-02T05:29:06.497Z,3.75
2023-04-02T05:31:40.082Z,3.85
2023-04-02T05:34:06.573Z,3.80
2023-04-02T05:36:33.033Z,3.53
2023-04-02T05:38:59.686Z,4.10
2023-04-02T05:41:32.301Z,3.25
2023-04-02T05:44:16.357Z,3.60
2023-04-02T05:46:48.670Z,2.90
2023-04-02T05:49:38.394Z,2.95
2023-04-02T05:52:06.834Z,3.13
2023-04-02T05:54:38.141Z,2.60
2023-04-02T05:57:06.591Z,2.80
2023-04-02T05:59:41.681Z,3.05
2023-04-02T06:02:27.034Z,2.70
2023-04-02T06:04:56.407Z,2.90
2023-04-02T06:07:24.409Z,2.95
2023-04-02T06:09:54.082Z,2.53
2023-04-02T06:12:29.069Z,2.97
2023-04-02T06:14:55.549Z,3.00
2023-04-02T06:17:21.941Z,2.67
2023-04-02T06:19:48.836Z,2.33
2023-04-02T06:22:38.272Z,2.63
2023-04-02T06:25:13.493Z,2.88
2023-04-02T06:27:41.794Z,2.83
2023-04-02T06:30:14.174Z,2.30
2023-04-02T06:32:40.561Z,2.95
2023-04-02T06:35:09.328Z,2.67
2023-04-02T06:37:38.148Z,3.17
2023-04-02T06:40:06.871Z,2.65
2023-04-02T06:42:33.223Z,3.20
2023-04-02T06:44:59.548Z,2.92
2023-04-02T06:47:42.491Z,3.15
2023-04-02T06:50:11.944Z,3.30
2023-04-02T06:52:52.134Z,3.03
2023-04-02T06:55:18.461Z,3.22
2023-04-02T06:57:44.833Z,3.00
2023-04-02T07:00:22.405Z,3.10
2023-04-02T07:02:49.872Z,3.83
2023-04-02T07:05:16.479Z,3.28
2023-04-02T07:07:42.795Z,3.75
2023-04-02T07:10:09.923Z,3.20
2023-04-02T07:12:36.196Z,3.53
2023-04-02T07:15:02.708Z,3.60
2023-04-02T07:17:29.313Z,3.67
2023-04-02T07:19:55.810Z,4.00
2023-04-02T07:22:22.690Z,4.05
2023-04-02T07:24:50.492Z,4.07
2023-04-02T07:27:16.852Z,4.28
2023-04-02T07:29:44.549Z,3.17
2023-04-02T07:32:11.687Z,3.83
2023-04-02T07:34:38.322Z,3.70
2023-04-02T07:37:05.040Z,3.72
2023-04-02T07:39:31.677Z,3.47
2023-04-02T07:41:59.443Z,3.65
2023-04-02T07:44:25.740Z,3.90
2023-04-02T07:46:52.110Z,4.07
2023-04-02T07:49:18.514Z,3.63
2023-04-02T07:51:44.862Z,4.00
2023-04-02T07:54:11.369Z,3.75
2023-04-02T07:56:38.096Z,3.78
2023-04-02T07:59:04.821Z,4.07
2023-04-02T08:01:35.558Z,4.03
2023-04-02T08:04:02.886Z,3.75
2023-04-02T08:06:29.219Z,3.55
2023-04-02T08:08:55.971Z,3.55
2023-04-02T08:11:22.241Z,3.40
2023-04-02T08:13:48.581Z,3.60
2023-04-02T08:16:14.946Z,4.25
2023-04-02T08:18:41.474Z,3.55
2023-04-02T08:21:09.092Z,4.20
2023-04-02T08:23:36.300Z,3.95
2023-04-02T08:26:03.115Z,3.80
2023-04-02T08:28:29.730Z,3.72
2023-04-02T08:30:56.386Z,4.20
2023-04-02T08:33:22.786Z,4.03
2023-04-02T08:35:49.519Z,3.40
2023-04-02T08:38:16.911Z,4.68
2023-04-02T08:40:44.937Z,3.80
2023-04-02T08:43:30.968Z,3.92
2023-04-02T08:46:11.279Z,3.80
2023-04-02T08:48:42.096Z,4.05
2023-04-02T08:51:15.010Z,3.30
2023-04-02T08:53:42.181Z,3.47
2023-04-02T08:56:18.965Z,4.00
2023-04-02T08:58:54.379Z,3.33
2023-04-02T09:01:39.409Z,3.90
2023-04-02T09:04:07.114Z,3.53
2023-04-02T09:06:33.569Z,3.53
2023-04-02T09:09:00.361Z,2.90
2023-04-02T09:11:32.941Z,3.03
2023-04-02T09:14:01.771Z,2.92
2023-04-02T09:16:37.995Z,2.92
2023-04-02T09:19:12.516Z,2.70
2023-04-02T09:21:41.924Z,2.88
2023-04-02T09:24:12.628Z,2.70
2023-04-02T09:29:08.414Z,2.25
2023-04-02T09:31:56.464Z,2.78
2023-04-02T09:34:27.140Z,2.45
2023-04-02T09:36:55.445Z,2.45
2023-04-02T09:39:28.664Z,3.40
2023-04-02T09:42:04.899Z,2.20
2023-04-02T09:44:33.732Z,1.95
2023-04-02T09:47:22.587Z,2.50
2023-04-02T09:49:48.921Z,1.60
2023-04-02T09:52:20.589Z,1.70
2023-04-02T09:55:04.528Z,1.50
2023-04-02T09:57:32.852Z,2.08
2023-04-02T10:00:25.466Z,1.75
2023-04-02T10:03:05.031Z,1.40
2023-04-02T10:05:40.528Z,1.52
2023-04-02T10:08:15.952Z,1.65
2023-04-02T10:10:44.666Z,2.35
2023-04-02T10:13:19.459Z,1.30
2023-04-02T10:15:57.252Z,1.73
2023-04-02T10:18:33.168Z,1.40
2023-04-02T10:21:01.424Z,2.70
2023-04-02T10:23:29.279Z,1.58
2023-04-02T10:26:14.777Z,1.90
2023-04-02T10:28:59.242Z,1.45
2023-04-02T10:31:41.207Z,2.00
2023-04-02T10:34:12.648Z,1.70
2023-04-02T10:36:39.000Z,1.83
2023-04-02T10:39:11.971Z,1.88
2023-04-02T10:41:53.086Z,2.10
2023-04-02T10:44:37.362Z,2.47
2023-04-02T10:47:22.455Z,3.47
2023-04-02T10:50:08.489Z,1.50
2023-04-02T10:52:38.626Z,5.80
2023-04-02T10:55:08.882Z,2.15
2023-04-02T10:57:35.396Z,1.85
2023-04-02T11:00:16.812Z,1.65
2023-04-02T11:03:06.188Z,1.88
2023-04-02T11:05:32.751Z,2.08
2023-04-02T11:08:02.070Z,1.98
2023-04-02T11:10:30.657Z,2.13
2023-04-02T11:13:03.297Z,1.92
2023-04-02T11:15:29.736Z,2.10
2023-04-02T11:17:56.369Z,1.95
2023-04-02T11:20:43.263Z,1.60
2023-04-02T11:23:13.484Z,1.60
2023-04-02T11:25:41.114Z,1.70
2023-04-02T11:28:28.026Z,1.92
2023-04-02T11:30:54.970Z,1.52
2023-04-02T11:33:44.974Z,1.67
2023-04-02T11:36:31.474Z,1.90
2023-04-02T11:39:07.304Z,1.92
2023-04-02T11:42:00.228Z,2.00
2023-04-02T11:44:26.587Z,1.58
2023-04-02T11:46:52.957Z,1.77
2023-04-02T11:49:36.435Z,2.05
2023-04-02T11:52:11.489Z,1.88
2023-04-02T11:54:38.829Z,1.60
2023-04-02T11:57:15.103Z,1.90
2023-04-02T11:59:47.271Z,1.90
2023-04-02T12:02:29.198Z,1.73
2023-04-02T12:05:07.551Z,3.83
2023-04-02T12:07:52.522Z,1.42
2023-04-02T12:10:20.948Z,1.50
2023-04-02T12:12:47.806Z,1.45
2023-04-02T12:15:27.005Z,1.60
2023-04-02T12:17:53.582Z,1.42
2023-04-02T12:20:22.603Z,1.45
2023-04-02T12:22:51.007Z,2.20
2023-04-02T12:25:23.454Z,2.00
2023-04-02T12:28:10.144Z,1.60
2023-04-02T12:30:37.547Z,1.60
2023-04-02T12:33:19.432Z,1.70
2023-04-02T12:35:46.868Z,1.40
2023-04-02T12:38:19.611Z,1.42
2023-04-02T12:40:53.455Z,1.75
2023-04-02T12:43:23.994Z,1.50
2023-04-02T12:45:58.902Z,1.50
2023-04-02T12:48:26.238Z,1.58
2023-04-02T12:50:53.011Z,1.50
2023-04-02T12:53:30.246Z,1.50
2023-04-02T12:55:56.767Z,1.65
2023-04-02T12:58:27.545Z,1.40
2023-04-02T13:01:09.316Z,1.40
2023-04-02T13:03:35.833Z,1.38
2023-04-02T13:06:02.265Z,1.85
2023-04-02T13:08:30.988Z,1.42
2023-04-02T13:10:59.574Z,1.30
2023-04-02T13:13:36.643Z,1.52
2023-04-02T13:16:05.823Z,2.00
2023-04-02T13:18:33.257Z,1.50
2023-04-02T13:21:00.320Z,1.52
2023-04-02T13:23:29.525Z,1.52
2023-04-02T13:25:59.683Z,1.50
2023-04-02T13:28:26.323Z,1.38
2023-04-02T13:30:52.616Z,1.40
2023-04-02T13:33:19.003Z,1.73
2023-04-02T13:35:45.438Z,1.60
2023-04-02T13:38:11.865Z,2.10
2023-04-02T13:40:38.784Z,1.58
2023-04-02T13:43:05.667Z,1.52
2023-04-02T13:45:37.266Z,1.77
2023-04-02T13:48:04.019Z,1.52
2023-04-02T13:50:35.166Z,1.70
2023-04-02T13:53:05.984Z,1.60
2023-04-02T13:55:37.742Z,1.50
2023-04-02T13:58:04.817Z,1.73
2023-04-02T14:00:31.409Z,1.50
2023-04-02T14:03:04.346Z,1.58
2023-04-02T14:05:36.970Z,1.27
2023-04-02T14:08:09.343Z,1.48
2023-04-02T14:10:54.320Z,2.15
2023-04-02T14:13:26.702Z,1.50
2023-04-02T14:15:56.259Z,1.65
2023-04-02T14:18:30.628Z,1.60
2023-04-02T14:21:03.653Z,1.38
2023-04-02T14:23:56.156Z,1.85
2023-04-02T14:26:39.623Z,1.45
2023-04-02T14:29:10.933Z,1.42
2023-04-02T14:31:46.951Z,1.30
2023-04-02T14:34:32.017Z,1.70
2023-04-02T14:37:04.409Z,1.60
2023-04-02T14:39:33.876Z,1.33
2023-04-02T14:42:20.800Z,1.30
2023-04-02T14:44:53.056Z,2.00
2023-04-02T14:47:23.217Z,1.90
2023-04-02T14:49:51.492Z,1.60
2023-04-02T14:52:20.574Z,2.22
2023-04-02T14:54:50.231Z,3.28
2023-04-02T14:57:21.534Z,3.37
2023-04-02T14:59:51.847Z,2.40
2023-04-02T15:02:20.965Z,1.50
2023-04-02T15:04:52.691Z,1.65
2023-04-02T15:07:21.020Z,1.65
2023-04-02T15:09:54.401Z,1.50
2023-04-02T15:12:22.765Z,1.30
2023-04-02T15:14:53.504Z,1.40
2023-04-02T15:17:20.377Z,1.58
2023-04-02T15:19:46.794Z,1.67
2023-04-02T15:22:27.192Z,1.75
2023-04-02T15:24:53.471Z,1.70
2023-04-02T15:27:26.956Z,2.00
2023-04-02T15:29:59.266Z,2.47
2023-04-02T15:32:31.810Z,2.35
2023-04-02T15:35:10.968Z,2.08
2023-04-02T15:37:52.666Z,1.98
2023-04-02T15:40:18.995Z,1.48
2023-04-02T15:42:55.126Z,1.70
2023-04-02T15:45:25.792Z,1.63
2023-04-02T15:47:57.891Z,1.55
2023-04-02T15:50:42.883Z,1.67
2023-04-02T15:53:18.437Z,1.50
2023-04-02T15:55:54.347Z,1.63
2023-04-02T15:58:46.324Z,1.67
2023-04-02T16:01:31.480Z,1.80
2023-04-02T16:04:11.274Z,2.80
2023-04-02T16:06:43.762Z,1.67
2023-04-02T16:09:13.266Z,1.90
2023-04-02T16:11:40.259Z,1.65
2023-04-02T16:14:19.906Z,1.60
2023-04-02T16:16:47.881Z,1.50
2023-04-02T16:19:53.008Z,1.55
2023-04-02T16:22:29.470Z,1.88
2023-04-02T16:25:19.527Z,1.95
2023-04-02T16:27:58.555Z,3.63
2023-04-02T16:30:44.384Z,4.85
2023-04-02T16:33:27.870Z,1.80
2023-04-02T16:36:01.437Z,3.70
2023-04-02T16:38:30.777Z,1.90
2023-04-02T16:41:08.687Z,2.10
2023-04-02T16:43:44.808Z,2.00
2023-04-02T16:46:25.151Z,1.73
2023-04-02T16:49:21.413Z,1.63
2023-04-02T16:52:04.844Z,1.55
2023-04-02T16:54:33.703Z,2.40
2023-04-02T16:57:00.075Z,7.40
2023-04-02T16:59:39.890Z,1.52
2023-04-02T17:02:12.178Z,1.70
2023-04-02T17:04:50.423Z,1.90
2023-04-02T17:07:19.683Z,3.00
2023-04-02T17:09:51.494Z,2.92
2023-04-02T17:12:35.367Z,5.05
2023-04-02T17:15:11.490Z,1.75
2023-04-02T17:17:44.730Z,1.55
2023-04-02T17:20:17.028Z,1.90
2023-04-02T17:22:43.370Z,1.52
2023-04-02T17:25:15.490Z,1.58
2023-04-02T17:27:43.985Z,1.63
2023-04-02T17:30:18.253Z,1.90
2023-04-02T17:32:44.994Z,1.55
2023-04-02T17:35:37.689Z,1.80
2023-04-02T17:38:09.947Z,1.85
2023-04-02T17:40:36.701Z,1.90
2023-04-02T17:43:03.246Z,1.60
2023-04-02T17:45:32.673Z,1.63
2023-04-02T17:48:05.731Z,1.30
2023-04-02T17:50:51.961Z,1.42
2023-04-02T17:53:33.263Z,1.70
2023-04-02T17:56:28.788Z,1.73
2023-04-02T17:58:57.870Z,1.45
2023-04-02T18:01:34.872Z,1.65
2023-04-02T18:04:10.221Z,1.45
2023-04-02T18:06:38.099Z,1.67
2023-04-02T18:09:10.658Z,1.55
2023-04-02T18:11:42.647Z,1.30
2023-04-02T18:14:25.526Z,1.67
2023-04-02T18:17:05.097Z,1.52
2023-04-02T18:19:34.713Z,1.60
2023-04-02T18:22:31.050Z,1.47
2023-04-02T18:25:17.659Z,1.60
2023-04-02T18:27:46.961Z,1.90
2023-04-02T18:30:19.515Z,1.17
2023-04-02T18:32:45.961Z,1.75
2023-04-02T18:35:18.534Z,1.70
2023-04-02T18:37:48.089Z,1.88
2023-04-02T18:40:22.023Z,1.77
2023-04-02T18:42:54.481Z,1.60
2023-04-02T18:45:20.867Z,1.83
2023-04-02T18:48:05.442Z,1.48
2023-04-02T18:50:33.665Z,1.70
2023-04-02T18:53:13.432Z,1.20
2023-04-02T18:55:56.934Z,1.60
2023-04-02T18:58:42.236Z,1.48
2023-04-02T19:01:09.825Z,1.75
2023-04-02T19:03:48.790Z,1.35
2023-04-02T19:06:23.687Z,1.75
2023-04-02T19:09:00.971Z,1.65
2023-04-02T19:11:31.338Z,1.35
2023-04-02T19:14:19.943Z,1.55
2023-04-02T19:16:49.168Z,1.60
2023-04-02T19:19:22.876Z,1.40
2023-04-02T19:22:08.580Z,1.40
2023-04-02T19:24:55.764Z,1.25
2023-04-02T19:27:25.090Z,1.65
2023-04-02T19:30:05.244Z,1.70
2023-04-02T19:32:44.250Z,1.75
2023-04-02T19:35:18.925Z,1.80
2023-04-02T19:37:51.505Z,1.77
2023-04-02T19:40:17.872Z,1.88
2023-04-02T19:42:46.226Z,1.77
2023-04-02T19:45:18.712Z,1.90
2023-04-02T19:47:45.010Z,1.38
2023-04-02T19:50:11.569Z,1.40
2023-04-02T19:52:38.158Z,1.63
2023-04-02T19:55:04.559Z,2.00
2023-04-02T19:57:31.058Z,1.25
2023-04-02T19:59:57.405Z,1.70
2023-04-02T20:02:23.796Z,1.10
2023-04-02T20:04:50.381Z,1.55
2023-04-02T20:07:16.723Z,1.52
2023-04-02T20:09:43.051Z,1.20
2023-04-02T20:12:09.637Z,1.50
2023-04-02T20:14:36.038Z,1.42
2023-04-02T20:17:02.376Z,1.33
2023-04-02T20:19:28.992Z,1.55
2023-04-02T20:21:56.261Z,1.98
2023-04-02T20:24:22.518Z,1.95
2023-04-02T20:26:48.747Z,1.50
2023-04-02T20:29:15.033Z,1.80
2023-04-02T20:31:41.528Z,1.58
2023-04-02T20:34:09.471Z,1.50
2023-04-02T20:36:36.490Z,2.22
2023-04-02T20:39:03.612Z,1.70
2023-04-02T20:41:30.068Z,2.00
2023-04-02T20:43:56.752Z,1.90
2023-04-02T20:46:23.202Z,1.92
2023-04-02T20:48:49.585Z,1.77
2023-04-02T20:51:16.009Z,1.70
2023-04-02T20:53:42.504Z,1.65
2023-04-02T20:56:10.935Z,1.60
2023-04-02T20:58:37.766Z,1.50
2023-04-02T21:01:11.917Z,1.88
2023-04-02T21:03:39.785Z,1.88
2023-04-02T21:06:07.774Z,1.40
2023-04-02T21:08:34.142Z,1.30
2023-04-02T21:11:01.234Z,1.60
2023-04-02T21:13:29.013Z,1.83
2023-04-02T21:15:55.538Z,1.45
2023-04-02T21:18:21.844Z,1.42
2023-04-02T21:21:01.541Z,1.70
2023-04-02T21:23:28.177Z,1.60
2023-04-02T21:25:58.718Z,1.23
2023-04-02T21:28:25.349Z,1.25
2023-04-02T21:30:51.707Z,1.63
2023-04-02T21:33:18.047Z,1.13
2023-04-02T21:35:44.530Z,1.98
2023-04-02T21:38:10.882Z,1.35
2023-04-02T21:40:37.176Z,1.30
2023-04-02T21:43:03.556Z,1.27
2023-04-02T21:45:29.901Z,1.27
2023-04-02T21:47:56.277Z,1.50
2023-04-02T21:50:22.724Z,1.60
2023-04-02T21:52:48.967Z,1.27
2023-04-02T21:55:15.464Z,1.00
2023-04-02T21:57:41.803Z,1.08
2023-04-02T22:00:12.360Z,1.33
2023-04-02T22:02:38.815Z,1.33
2023-04-02T22:05:05.596Z,1.40
2023-04-02T22:07:31.937Z,1.20
2023-04-02T22:09:58.270Z,1.40
2023-04-02T22:12:24.579Z,1.40
2023-04-02T22:14:51.721Z,1.45
2023-04-02T22:17:18.026Z,1.40
2023-04-02T22:19:44.308Z,1.10
2023-04-02T22:22:10.641Z,1.40
2023-04-02T22:24:38.289Z,1.65
2023-04-02T22:27:04.563Z,1.35
2023-04-02T22:29:30.979Z,1.10
2023-04-02T22:31:57.334Z,1.23
2023-04-02T22:34:23.797Z,1.60
2023-04-02T22:36:50.209Z,1.58
2023-04-02T22:39:17.073Z,1.25
2023-04-02T22:41:43.665Z,1.33
2023-04-02T22:44:13.177Z,1.10
2023-04-02T22:46:39.538Z,1.23
2023-04-02T22:49:06.151Z,1.58
2023-04-02T22:51:32.576Z,1.17
2023-04-02T22:53:58.994Z,1.40
2023-04-02T22:56:27.572Z,1.63
2023-04-02T22:58:53.894Z,1.40
2023-04-02T23:01:22.333Z,1.25
2023-04-02T23:03:49.209Z,1.45
2023-04-02T23:06:16.662Z,1.70
2023-04-02T23:08:43.585Z,1.23
2023-04-02T23:11:11.787Z,1.30
2023-04-02T23:13:39.223Z,1.15
2023-04-02T23:16:06.706Z,1.42
2023-04-02T23:18:36.322Z,1.30
2023-04-02T23:21:02.849Z,1.30
2023-04-02T23:23:29.696Z,1.17
2023-04-02T23:26:09.454Z,1.27
2023-04-02T23:28:36.607Z,1.40
2023-04-02T23:31:04.133Z,1.83
2023-04-02T23:33:30.905Z,1.40
2023-04-02T23:35:57.516Z,1.20
2023-04-02T23:38:24.094Z,1.58
2023-04-02T23:40:50.439Z,1.40
2023-04-02T23:43:16.709Z,1.92
2023-04-02T23:45:46.780Z,1.42
2023-04-02T23:48:13.091Z,1.35
2023-04-02T23:50:39.389Z,1.40
2023-04-02T23:53:05.886Z,1.15
2023-04-02T23:55:32.530Z,1.10
2023-04-02T23:57:59.007Z,1.40
